Time;durP1;ratioP1;P1;durP2;ratioP2;P2;SDS_P1;SDS_P2;PMS_P1;PMS_P2;Temp;Humidity;BMP_temperature;BMP_pressure;BME280_temperature;BME280_humidity;BME280_pressure;Samples;Min_cycle;Max_cycle;Signal;HPM_P1;HPM_P2
2023/05/23 05:07:23;;;;;;;19.27;15.53;;;14.30;99.90;;;;;;5049648;27;2998675;-83
2023/05/23 05:14:31;;;;;;;20.03;15.67;;;14.50;99.90;;;;;;5075075;28;20600;-82
2023/05/23 05:19:41;;;;;;;21.43;17.00;;;14.60;99.90;;;;;;5134241;27;20534;-81
2023/05/23 05:25:00;;;;;;;19.53;15.33;;;14.80;99.90;;;;;;5002460;28;20309;-81
2023/05/23 05:31:52;;;;;;;22.80;15.63;;;15.00;99.90;;;;;;5163203;27;20480;-80
2023/05/23 05:36:36;;;;;;;21.27;15.07;;;15.10;99.90;;;;;;5133921;27;20278;-80
2023/05/23 05:40:24;;;;;;;22.93;14.97;;;15.30;99.90;;;;;;5154842;27;20262;-80
2023/05/23 05:44:26;;;;;;;21.43;15.70;;;15.30;99.90;;;;;;5136697;27;20266;-81
2023/05/23 05:48:23;;;;;;;26.77;16.50;;;15.50;99.90;;;;;;5135485;27;20274;-82
2023/05/23 05:52:15;;;;;;;22.17;16.57;;;15.70;99.90;;;;;;5074982;28;20888;-84
2023/05/23 05:56:09;;;;;;;20.43;14.60;;;15.90;99.90;;;;;;5115707;27;20558;-84
2023/05/23 06:00:25;;;;;;;21.30;15.93;;;16.20;99.90;;;;;;5180806;27;20378;-83
2023/05/23 06:04:24;;;;;;;23.63;15.83;;;16.30;99.90;;;;;;5074639;28;20581;-82
2023/05/23 06:08:03;;;;;;;22.70;17.90;;;16.50;99.90;;;;;;5178836;27;20355;-83
2023/05/23 06:13:08;;;;;;;18.73;15.37;;;16.70;99.90;;;;;;5134550;27;20276;-81
2023/05/23 06:17:48;;;;;;;21.70;16.13;;;16.70;99.90;;;;;;5135652;27;20605;-80
2023/05/23 06:22:59;;;;;;;18.13;15.43;;;16.60;99.90;;;;;;5116187;27;20268;-83
2023/05/23 06:27:20;;;;;;;18.63;14.63;;;16.60;99.90;;;;;;5127946;27;20616;-80
2023/05/23 06:30:58;;;;;;;16.23;13.90;;;16.60;99.90;;;;;;5135922;27;20295;-81
2023/05/23 06:33:24;;;;;;;20.57;15.27;;;16.70;99.90;;;;;;5134184;28;20268;-81
2023/05/23 06:35:49;;;;;;;21.10;15.53;;;16.90;99.90;;;;;;5136602;27;20164;-80
2023/05/23 06:38:15;;;;;;;22.87;16.50;;;17.10;99.90;;;;;;5136103;27;20224;-80
2023/05/23 06:40:41;;;;;;;23.20;17.47;;;17.20;99.90;;;;;;5136656;27;20173;-81
2023/05/23 06:43:06;;;;;;;23.87;18.07;;;17.30;99.90;;;;;;5137220;27;20251;-81
2023/05/23 06:45:33;;;;;;;21.13;16.20;;;17.40;99.90;;;;;;5136168;27;20652;-82
2023/05/23 06:48:00;;;;;;;22.93;17.00;;;17.50;99.90;;;;;;5137354;28;20192;-81
2023/05/23 06:50:25;;;;;;;22.77;17.33;;;17.60;99.90;;;;;;5134459;28;20555;-82
2023/05/23 06:52:51;;;;;;;24.30;18.27;;;17.60;99.90;;;;;;5134192;28;20247;-83
2023/05/23 06:55:17;;;;;;;21.43;16.10;;;17.80;99.90;;;;;;5137894;28;20173;-81
2023/05/23 06:57:43;;;;;;;22.87;17.70;;;17.90;99.90;;;;;;5136993;28;20175;-83
2023/05/23 07:00:10;;;;;;;20.67;16.83;;;18.00;99.90;;;;;;5136859;28;20529;-81
2023/05/23 07:02:36;;;;;;;27.00;17.97;;;18.10;99.90;;;;;;5135567;28;20265;-81
2023/05/23 07:05:01;;;;;;;26.73;18.50;;;18.10;99.90;;;;;;5135192;28;20218;-83
2023/05/23 07:07:27;;;;;;;23.03;17.93;;;18.20;99.90;;;;;;5133744;28;20182;-83
2023/05/23 07:09:53;;;;;;;23.57;18.33;;;18.10;99.90;;;;;;5134483;28;20673;-84
2023/05/23 07:12:18;;;;;;;26.70;19.37;;;18.00;99.90;;;;;;5134242;28;20240;-84
2023/05/23 07:14:44;;;;;;;29.93;19.90;;;18.00;99.90;;;;;;5136033;28;20529;-84
2023/05/23 07:17:09;;;;;;;27.97;20.53;;;17.90;99.90;;;;;;5141161;28;20188;-83
2023/05/23 07:19:36;;;;;;;29.63;20.40;;;17.70;99.90;;;;;;5132297;28;20183;-82
2023/05/23 07:22:02;;;;;;;25.57;20.33;;;17.60;99.90;;;;;;5132088;28;20215;-82
2023/05/23 07:24:27;;;;;;;24.40;19.97;;;17.40;99.90;;;;;;5132145;28;20246;-82
2023/05/23 07:26:53;;;;;;;28.53;20.30;;;17.30;99.90;;;;;;5132533;28;20182;-83
2023/05/23 07:29:19;;;;;;;27.93;20.73;;;17.30;99.90;;;;;;5133496;28;20285;-82
2023/05/23 07:31:44;;;;;;;32.13;21.97;;;17.30;99.90;;;;;;5133497;28;20718;-84
2023/05/23 07:34:10;;;;;;;25.63;21.20;;;17.30;99.90;;;;;;5133349;28;20166;-83
2023/05/23 07:36:36;;;;;;;29.70;22.17;;;17.20;99.90;;;;;;5133380;28;20225;-83
2023/05/23 07:39:02;;;;;;;30.47;23.47;;;17.20;99.90;;;;;;5133732;28;20180;-83
2023/05/23 07:49:12;;;;;;;37.80;25.70;;;16.60;99.90;;;;;;5094705;28;20278;-82
2023/05/23 07:54:05;;;;;;;33.47;25.60;;;16.60;99.90;;;;;;5136114;27;20275;-81
2023/05/23 07:56:31;;;;;;;40.03;27.13;;;16.80;99.90;;;;;;5135848;28;20176;-80
2023/05/23 07:58:57;;;;;;;39.93;26.43;;;17.00;99.90;;;;;;5117460;28;20181;-81
2023/05/23 08:01:23;;;;;;;38.90;26.40;;;17.10;99.90;;;;;;5135670;28;20192;-82
2023/05/23 08:03:49;;;;;;;36.30;25.97;;;17.30;99.90;;;;;;5134442;28;20178;-83
2023/05/23 08:06:15;;;;;;;38.27;27.10;;;17.50;99.90;;;;;;5137876;27;20181;-80
2023/05/23 08:08:42;;;;;;;35.30;25.40;;;17.60;99.90;;;;;;5137661;27;20270;-81
2023/05/23 08:11:08;;;;;;;37.77;26.80;;;17.60;99.90;;;;;;5133516;28;20206;-82
2023/05/23 08:13:34;;;;;;;37.40;25.70;;;17.60;99.90;;;;;;5135796;27;20191;-82
2023/05/23 08:16:00;;;;;;;35.27;25.80;;;17.70;99.90;;;;;;5135695;28;20178;-81
2023/05/23 08:18:25;;;;;;;35.70;26.27;;;17.80;99.90;;;;;;5142699;27;20171;-84
2023/05/23 08:20:52;;;;;;;36.63;26.00;;;17.80;99.90;;;;;;5141308;28;20186;-82
2023/05/23 08:23:18;;;;;;;34.53;26.10;;;17.90;99.90;;;;;;5145253;28;20212;-83
2023/05/23 08:25:44;;;;;;;34.03;25.70;;;17.90;99.90;;;;;;5142536;28;20176;-80
2023/05/23 08:28:09;;;;;;;38.20;27.70;;;18.00;99.90;;;;;;5146333;27;20258;-82
2023/05/23 08:30:35;;;;;;;37.77;26.33;;;17.90;99.90;;;;;;5152081;27;20193;-80
2023/05/23 08:33:03;;;;;;;40.80;28.60;;;17.90;99.90;;;;;;5149950;28;20720;-80
2023/05/23 08:35:33;;;;;;;35.03;25.77;;;17.80;99.90;;;;;;5151591;28;20176;-80
2023/05/23 08:38:03;;;;;;;41.60;27.47;;;17.70;99.90;;;;;;5141233;27;20162;-82
2023/05/23 08:40:31;;;;;;;37.00;26.30;;;17.60;99.90;;;;;;5136694;27;20177;-82
2023/05/23 08:42:57;;;;;;;36.03;26.83;;;17.50;99.90;;;;;;5133728;28;20185;-82
2023/05/23 08:45:23;;;;;;;33.83;25.77;;;17.40;99.90;;;;;;5133258;28;20203;-82
2023/05/23 08:47:51;;;;;;;35.70;26.17;;;17.40;99.90;;;;;;5134629;27;20203;-81
2023/05/23 08:50:17;;;;;;;34.53;25.43;;;17.40;99.90;;;;;;5132682;28;20179;-82
2023/05/23 08:52:52;;;;;;;38.13;26.53;;;17.40;99.90;;;;;;5133322;27;20211;-82
2023/05/23 08:55:19;;;;;;;33.37;24.57;;;17.50;99.90;;;;;;5134582;27;20177;-81
2023/05/23 08:57:45;;;;;;;34.87;24.27;;;17.50;99.90;;;;;;5132334;28;20171;-82
2023/05/23 09:00:15;;;;;;;33.67;22.97;;;17.50;99.90;;;;;;5133244;27;20167;-82
2023/05/23 09:02:44;;;;;;;28.37;21.20;;;17.60;99.90;;;;;;5132052;28;20561;-81
2023/05/23 09:05:11;;;;;;;29.50;21.33;;;17.80;99.90;;;;;;5121852;27;20565;-82
2023/05/23 09:07:37;;;;;;;30.77;22.00;;;17.90;99.90;;;;;;5119713;28;20563;-81
2023/05/23 09:10:09;;;;;;;28.03;20.77;;;18.20;99.90;;;;;;5119641;27;20649;-82
2023/05/23 09:12:38;;;;;;;26.43;20.33;;;18.50;99.90;;;;;;5120373;28;20203;-81
2023/05/23 09:15:08;;;;;;;29.60;21.57;;;18.80;99.90;;;;;;5120235;28;20231;-81
2023/05/23 09:17:35;;;;;;;32.23;22.83;;;18.90;99.90;;;;;;5118968;28;20211;-81
2023/05/23 09:20:01;;;;;;;32.03;22.63;;;19.00;99.90;;;;;;5120734;28;20255;-82
2023/05/23 09:22:27;;;;;;;30.83;23.77;;;18.90;99.90;;;;;;5118515;28;20200;-82
2023/05/23 09:24:54;;;;;;;35.83;24.07;;;18.80;99.90;;;;;;5120914;28;20179;-82
2023/05/23 09:27:20;;;;;;;31.03;24.33;;;18.70;99.90;;;;;;5118831;28;20206;-81
2023/05/23 09:29:46;;;;;;;28.73;22.70;;;18.60;99.90;;;;;;5120644;28;20172;-82
2023/05/23 09:32:17;;;;;;;31.00;24.20;;;18.50;99.90;;;;;;5119541;28;20223;-82
2023/05/23 09:35:02;;;;;;;33.57;25.53;;;18.50;99.90;;;;;;5120012;28;20187;-82
2023/05/23 09:37:39;;;;;;;33.63;25.23;;;18.80;99.90;;;;;;5119445;28;20690;-82
2023/05/23 09:40:11;;;;;;;31.27;23.93;;;18.80;99.90;;;;;;5119953;28;20167;-82
2023/05/23 09:42:47;;;;;;;29.10;23.63;;;19.00;99.90;;;;;;5120537;28;20195;-82
2023/05/23 09:45:15;;;;;;;35.40;25.40;;;19.40;99.90;;;;;;5123058;28;20175;-85
2023/05/23 09:47:51;;;;;;;34.20;25.37;;;19.80;99.90;;;;;;5122691;28;20199;-83
2023/05/23 09:50:17;;;;;;;30.13;24.57;;;20.20;99.90;;;;;;5121257;28;20179;-82
2023/05/23 09:52:43;;;;;;;33.30;24.10;;;20.60;99.90;;;;;;5123188;28;20235;-82
2023/05/23 09:55:09;;;;;;;36.40;26.60;;;20.60;99.90;;;;;;5123691;28;20201;-81
2023/05/23 09:57:38;;;;;;;34.10;25.80;;;20.70;99.90;;;;;;5125957;28;20177;-82
2023/05/23 10:00:12;;;;;;;34.10;27.33;;;20.70;99.90;;;;;;5122041;28;20227;-82
2023/05/23 10:02:43;;;;;;;36.40;27.70;;;20.80;99.90;;;;;;5121428;28;20208;-84
2023/05/23 10:05:24;;;;;;;34.20;26.63;;;20.70;99.90;;;;;;5120832;28;20272;-83
2023/05/23 10:07:50;;;;;;;36.73;27.20;;;21.00;99.90;;;;;;5119461;28;20175;-84
2023/05/23 10:10:16;;;;;;;32.37;25.10;;;21.10;99.90;;;;;;5120692;28;20356;-84
2023/05/23 10:12:55;;;;;;;31.70;24.23;;;20.90;99.90;;;;;;5121142;28;20231;-81
2023/05/23 10:15:24;;;;;;;32.20;24.63;;;20.60;99.90;;;;;;5121439;28;20226;-80
2023/05/23 10:18:20;;;;;;;32.17;24.47;;;20.40;99.90;;;;;;5121415;28;20650;-83
2023/05/23 10:20:48;;;;;;;35.07;27.03;;;20.30;99.90;;;;;;5119933;28;20617;-82
2023/05/23 10:23:15;;;;;;;34.20;27.03;;;20.20;99.90;;;;;;5120198;28;20181;-82
2023/05/23 10:25:42;;;;;;;36.50;28.33;;;19.90;99.90;;;;;;5122818;28;20168;-83
2023/05/23 10:28:08;;;;;;;32.87;25.80;;;19.60;99.90;;;;;;5121185;28;20178;-82
2023/05/23 10:30:34;;;;;;;36.97;27.97;;;19.30;99.90;;;;;;5121467;28;20173;-84
2023/05/23 10:33:02;;;;;;;36.57;28.13;;;19.40;99.90;;;;;;5121893;28;20283;-84
2023/05/23 10:35:53;;;;;;;40.57;29.00;;;19.40;99.90;;;;;;5119937;28;20207;-83
2023/05/23 10:38:41;;;;;;;37.33;27.97;;;19.60;99.90;;;;;;5121046;28;20169;-81
2023/05/23 10:41:12;;;;;;;39.57;28.67;;;20.10;99.90;;;;;;5119760;28;20287;-83
2023/05/23 10:44:25;;;;;;;38.93;27.50;;;21.00;99.90;;;;;;5118748;28;20180;-82
2023/05/23 10:47:01;;;;;;;34.20;26.70;;;21.40;99.90;;;;;;5092123;28;20289;-82
2023/05/23 10:49:38;;;;;;;33.17;24.93;;;21.30;99.90;;;;;;5120069;28;20161;-80
2023/05/23 10:52:06;;;;;;;34.93;26.10;;;20.90;99.90;;;;;;5119187;28;20236;-83
2023/05/23 10:54:46;;;;;;;37.50;26.23;;;20.60;99.90;;;;;;5117785;28;20659;-82
2023/05/23 10:57:15;;;;;;;36.43;27.03;;;20.10;99.90;;;;;;5118529;28;20195;-81
2023/05/23 10:59:41;;;;;;;32.57;24.93;;;19.70;99.90;;;;;;5120578;28;20174;-83
2023/05/23 11:02:28;;;;;;;33.97;25.70;;;19.40;99.90;;;;;;5119373;28;20197;-83
2023/05/23 11:05:20;;;;;;;34.13;25.97;;;18.80;99.90;;;;;;5119040;28;20188;-82
2023/05/23 11:08:05;;;;;;;33.00;25.97;;;18.40;99.90;;;;;;5122089;28;20183;-82
2023/05/23 11:10:30;;;;;;;35.73;25.97;;;18.10;99.90;;;;;;5122963;28;20190;-83
2023/05/23 11:13:05;;;;;;;39.40;24.63;;;18.00;99.90;;;;;;5124079;28;20199;-82
2023/05/23 11:15:41;;;;;;;33.90;25.13;;;18.00;99.90;;;;;;5122223;28;20151;-82
2023/05/23 11:18:07;;;;;;;33.43;24.50;;;18.00;99.90;;;;;;5118518;28;20613;-81
2023/05/23 11:20:36;;;;;;;34.70;24.73;;;18.10;99.90;;;;;;5118025;28;20193;-81
2023/05/23 11:23:06;;;;;;;37.07;26.63;;;18.10;99.90;;;;;;5120042;28;20702;-83
2023/05/23 11:25:41;;;;;;;39.50;26.43;;;18.00;99.90;;;;;;5120134;28;20178;-82
2023/05/23 11:28:08;;;;;;;38.90;27.53;;;17.80;99.90;;;;;;5121340;28;20197;-82
2023/05/23 11:30:38;;;;;;;38.73;28.23;;;17.60;99.90;;;;;;5121988;28;20191;-81
2023/05/23 11:33:13;;;;;;;43.40;29.43;;;17.40;99.90;;;;;;5120315;28;20199;-81
2023/05/23 11:35:43;;;;;;;43.20;29.27;;;17.10;99.90;;;;;;5122598;28;20253;-83
2023/05/23 11:38:10;;;;;;;42.33;29.90;;;16.90;99.90;;;;;;5119206;28;20175;-81
2023/05/23 11:40:37;;;;;;;41.30;29.60;;;16.90;99.90;;;;;;5118110;28;20182;-81
2023/05/23 11:43:08;;;;;;;43.33;29.83;;;16.90;99.90;;;;;;5123755;28;20174;-83
2023/05/23 11:45:35;;;;;;;42.40;29.70;;;16.80;99.90;;;;;;5125788;28;20183;-82
2023/05/23 11:48:11;;;;;;;44.47;30.90;;;16.80;99.90;;;;;;5127263;28;20631;-82
2023/05/23 11:50:43;;;;;;;44.80;30.43;;;16.80;99.90;;;;;;5130750;28;20170;-81
2023/05/23 11:53:09;;;;;;;46.50;32.10;;;16.90;99.90;;;;;;5123525;28;20203;-83
2023/05/23 11:55:38;;;;;;;51.20;33.13;;;17.00;99.90;;;;;;5120527;28;20170;-82
2023/05/23 11:58:05;;;;;;;47.07;31.90;;;17.10;99.90;;;;;;5118677;28;20178;-81
2023/05/23 12:00:30;;;;;;;40.10;29.30;;;17.10;99.90;;;;;;5118345;28;20181;-82
2023/05/23 12:02:56;;;;;;;40.80;29.80;;;17.20;99.90;;;;;;5119708;28;20181;-81
2023/05/23 12:05:22;;;;;;;41.47;29.67;;;17.20;99.90;;;;;;5118230;28;20210;-82
2023/05/23 12:07:48;;;;;;;44.33;31.97;;;17.30;99.90;;;;;;5116390;28;20180;-83
2023/05/23 12:10:20;;;;;;;54.17;32.07;;;17.40;99.90;;;;;;5117702;28;20655;-83
2023/05/23 12:12:46;;;;;;;45.10;30.97;;;17.70;99.90;;;;;;5117019;28;20225;-83
2023/05/23 12:15:12;;;;;;;39.83;30.33;;;17.80;99.90;;;;;;5118338;28;20201;-83
2023/05/23 12:17:42;;;;;;;42.97;30.17;;;17.90;99.90;;;;;;5117457;28;20670;-83
2023/05/23 12:20:10;;;;;;;41.30;29.40;;;17.90;99.90;;;;;;5117864;28;20495;-82
2023/05/23 12:22:36;;;;;;;42.90;30.60;;;18.10;99.90;;;;;;5121769;28;20248;-83
2023/05/23 12:25:03;;;;;;;35.83;29.07;;;18.40;99.90;;;;;;5117211;28;20620;-83
2023/05/23 12:27:33;;;;;;;39.00;29.37;;;18.60;99.90;;;;;;5117274;28;20243;-86
2023/05/23 12:30:13;;;;;;;45.93;30.60;;;18.90;99.90;;;;;;5123092;28;20183;-84
2023/05/23 12:32:41;;;;;;;37.63;28.03;;;19.20;99.90;;;;;;5120270;28;20201;-84
2023/05/23 12:35:17;;;;;;;35.20;26.93;;;20.10;99.90;;;;;;5119233;28;20175;-85
2023/05/23 12:37:47;;;;;;;35.00;26.47;;;20.20;99.90;;;;;;5118924;28;20239;-85
2023/05/23 12:40:17;;;;;;;33.80;26.87;;;20.10;99.90;;;;;;5121090;28;20171;-84
2023/05/23 12:42:45;;;;;;;31.07;25.43;;;20.10;99.90;;;;;;5131916;28;20352;-81
2023/05/23 12:45:14;;;;;;;32.40;25.57;;;20.00;99.90;;;;;;5121273;28;20213;-82
2023/05/23 12:47:39;;;;;;;31.50;26.10;;;19.90;99.90;;;;;;5118757;28;20175;-82
2023/05/23 12:50:05;;;;;;;34.40;27.13;;;19.80;99.90;;;;;;5119251;28;20183;-80
2023/05/23 12:52:31;;;;;;;33.13;25.70;;;19.80;99.90;;;;;;5120863;28;20208;-82
2023/05/23 12:54:57;;;;;;;33.03;24.70;;;20.60;99.90;;;;;;5119832;28;20509;-84
2023/05/23 12:57:22;;;;;;;29.47;24.57;;;21.40;99.90;;;;;;5121025;28;20651;-84
2023/05/23 12:59:48;;;;;;;28.97;22.93;;;22.80;99.90;;;;;;5119432;28;20171;-82
2023/05/23 13:02:14;;;;;;;26.23;22.03;;;24.30;99.90;;;;;;5119528;28;20196;-81
2023/05/23 13:04:39;;;;;;;28.10;21.87;;;25.00;99.90;;;;;;5121205;28;20266;-83
2023/05/23 13:07:05;;;;;;;24.90;20.57;;;25.70;99.90;;;;;;5119857;28;20181;-83
2023/05/23 13:09:31;;;;;;;27.57;21.17;;;26.00;99.90;;;;;;5120828;28;20181;-82
2023/05/23 13:11:57;;;;;;;24.47;20.50;;;25.90;99.90;;;;;;5122009;28;20563;-83
2023/05/23 13:14:23;;;;;;;24.13;21.53;;;25.40;99.90;;;;;;5121465;28;20160;-83
2023/05/23 13:16:48;;;;;;;24.87;21.23;;;24.70;99.90;;;;;;5121349;28;20247;-83
2023/05/23 13:19:14;;;;;;;23.50;19.60;;;24.10;99.90;;;;;;5121554;28;20198;-82
2023/05/23 13:21:40;;;;;;;23.27;20.77;;;23.20;99.90;;;;;;5119640;28;20214;-83
2023/05/23 13:24:07;;;;;;;19.20;17.07;;;22.40;99.90;;;;;;5119918;28;20172;-83
2023/05/23 13:26:33;;;;;;;20.33;17.87;;;22.00;99.90;;;;;;5119216;28;20230;-82
2023/05/23 13:28:59;;;;;;;22.20;19.27;;;21.60;99.90;;;;;;5122035;28;20634;-82
2023/05/23 13:31:25;;;;;;;21.33;18.70;;;21.10;99.90;;;;;;5121097;28;20207;-82
2023/05/23 13:33:51;;;;;;;22.33;19.87;;;20.60;99.90;;;;;;5121635;28;20225;-81
2023/05/23 13:36:17;;;;;;;27.97;20.57;;;19.90;99.90;;;;;;5123457;28;20179;-81
2023/05/23 13:38:42;;;;;;;27.60;22.13;;;19.20;99.90;;;;;;5123466;28;20180;-81
2023/05/23 13:41:08;;;;;;;27.80;22.03;;;18.70;99.90;;;;;;5123128;28;20192;-82
2023/05/23 13:43:34;;;;;;;28.97;23.23;;;18.30;99.90;;;;;;5124552;28;20545;-82
2023/05/23 13:46:01;;;;;;;30.43;24.63;;;18.00;99.90;;;;;;5124825;28;20258;-80
2023/05/23 13:48:27;;;;;;;26.87;22.57;;;17.70;99.90;;;;;;5127374;28;20197;-82
2023/05/23 14:25:33;;;;;;;19.90;15.70;;;15.50;99.90;;;;;;5138885;27;20274;-82
2023/05/23 14:34:03;;;;;;;25.00;16.27;;;15.30;99.90;;;;;;5115700;27;20602;-82
2023/05/23 14:39:21;;;;;;;25.90;17.77;;;15.30;99.90;;;;;;5147854;27;20279;-83
2023/05/23 14:41:46;;;;;;;25.87;18.03;;;15.30;99.90;;;;;;5115848;28;20290;-80
2023/05/23 14:44:12;;;;;;;23.97;17.57;;;15.70;99.90;;;;;;5116012;28;20205;-82
2023/05/23 14:46:38;;;;;;;25.03;18.30;;;15.90;99.90;;;;;;5119822;28;20192;-82
2023/05/23 14:49:03;;;;;;;23.67;16.73;;;16.10;99.90;;;;;;5132911;28;20171;-81
2023/05/23 14:51:29;;;;;;;24.97;16.60;;;16.50;99.90;;;;;;5131040;28;20198;-82
2023/05/23 14:53:55;;;;;;;21.03;16.33;;;16.50;99.90;;;;;;5128803;28;20172;-81
2023/05/23 14:56:22;;;;;;;21.47;15.23;;;16.30;99.90;;;;;;5130117;28;20192;-81
2023/05/23 14:58:47;;;;;;;20.83;14.93;;;16.30;99.90;;;;;;5116460;28;20221;-83
2023/05/23 15:01:13;;;;;;;19.77;16.00;;;16.20;99.90;;;;;;5114922;28;20207;-83
2023/05/23 15:03:39;;;;;;;18.43;15.30;;;16.20;99.90;;;;;;5117902;28;20527;-83
2023/05/23 15:06:05;;;;;;;20.63;14.80;;;16.30;99.90;;;;;;5118525;28;20520;-83
2023/05/23 15:08:32;;;;;;;18.13;12.83;;;16.50;99.90;;;;;;5114171;28;20184;-83
2023/05/23 15:10:58;;;;;;;16.30;12.33;;;16.50;99.90;;;;;;5115217;28;20719;-83
2023/05/23 15:13:23;;;;;;;14.07;10.67;;;16.40;99.90;;;;;;5113136;28;20205;-81
2023/05/23 15:15:49;;;;;;;13.20;10.30;;;16.30;99.90;;;;;;5115010;28;20177;-81
2023/05/23 15:18:15;;;;;;;13.17;9.57;;;16.20;99.90;;;;;;5114603;28;20613;-82
2023/05/23 15:20:40;;;;;;;11.77;8.67;;;16.10;99.90;;;;;;5113069;28;20219;-82
2023/05/23 15:23:06;;;;;;;11.87;9.43;;;16.00;99.90;;;;;;5114890;28;20174;-81
2023/05/23 15:25:32;;;;;;;10.87;8.97;;;16.00;99.90;;;;;;5116149;28;20167;-84
2023/05/23 15:27:57;;;;;;;10.60;8.50;;;16.10;99.90;;;;;;5116495;28;20183;-82
2023/05/23 15:30:23;;;;;;;11.93;9.00;;;16.10;99.90;;;;;;5117195;28;20207;-82
2023/05/23 15:32:49;;;;;;;11.87;7.57;;;16.00;99.90;;;;;;5115585;28;20218;-84
2023/05/23 15:35:15;;;;;;;10.97;8.90;;;16.20;99.90;;;;;;5115092;28;20179;-82
2023/05/23 15:37:41;;;;;;;10.70;9.10;;;16.50;99.90;;;;;;5113216;28;20575;-83
2023/05/23 15:40:07;;;;;;;10.63;8.33;;;16.70;99.90;;;;;;5112594;28;20218;-82
2023/05/23 15:42:34;;;;;;;10.40;8.53;;;16.70;99.90;;;;;;5111732;28;20195;-83
2023/05/23 15:45:01;;;;;;;10.90;8.13;;;16.70;99.90;;;;;;5112126;28;20177;-82
2023/05/23 15:47:26;;;;;;;9.70;8.17;;;16.90;99.90;;;;;;5113438;28;20173;-83
2023/05/23 15:49:52;;;;;;;8.30;7.10;;;17.50;99.90;;;;;;5104134;28;20728;-84
2023/05/23 15:52:18;;;;;;;9.90;8.03;;;17.60;99.90;;;;;;5099263;28;20208;-82
2023/05/23 15:54:43;;;;;;;11.43;8.83;;;17.40;99.90;;;;;;5099284;28;20183;-83
2023/05/23 15:57:09;;;;;;;11.53;8.80;;;17.10;99.90;;;;;;5099710;28;20178;-83
2023/05/23 15:59:36;;;;;;;10.53;9.03;;;16.80;99.90;;;;;;5101028;28;20171;-83
2023/05/23 16:02:05;;;;;;;14.03;9.50;;;17.00;99.90;;;;;;5101291;28;20244;-84
2023/05/23 16:04:31;;;;;;;10.53;8.47;;;17.10;99.90;;;;;;5103649;28;20178;-82
2023/05/23 16:06:57;;;;;;;12.20;8.93;;;17.10;99.90;;;;;;5100172;28;20201;-83
2023/05/23 16:09:22;;;;;;;13.60;9.30;;;17.00;99.90;;;;;;5100096;28;20642;-84
2023/05/23 16:11:48;;;;;;;12.23;9.40;;;17.20;99.90;;;;;;5098758;28;20198;-85
2023/05/23 16:14:13;;;;;;;11.73;9.07;;;17.00;99.90;;;;;;5100586;28;20175;-85
2023/05/23 16:16:39;;;;;;;14.27;9.50;;;17.00;99.90;;;;;;5099565;28;20670;-84
2023/05/23 16:19:05;;;;;;;13.60;8.73;;;16.70;99.90;;;;;;5107918;28;20243;-84
2023/05/23 16:21:31;;;;;;;10.93;9.13;;;16.60;99.90;;;;;;5103317;28;20217;-84
2023/05/23 16:23:56;;;;;;;12.17;8.97;;;16.50;99.90;;;;;;5097113;28;20170;-82
2023/05/23 16:26:22;;;;;;;12.20;9.90;;;16.60;99.90;;;;;;5098519;28;20726;-83
2023/05/23 16:28:47;;;;;;;12.40;9.70;;;16.70;99.90;;;;;;5098412;28;20715;-83
2023/05/23 16:31:15;;;;;;;13.23;10.00;;;16.80;99.90;;;;;;5097518;28;20199;-83
2023/05/23 16:33:41;;;;;;;11.30;9.93;;;16.90;99.90;;;;;;5097062;28;20177;-83
2023/05/23 16:36:07;;;;;;;12.20;9.90;;;16.90;99.90;;;;;;5096903;28;20180;-83
2023/05/23 16:38:33;;;;;;;13.73;10.00;;;16.90;99.90;;;;;;5097318;28;20295;-83
2023/05/23 16:40:58;;;;;;;15.27;9.90;;;16.90;99.90;;;;;;5097671;28;20193;-82
2023/05/23 16:43:24;;;;;;;14.77;12.53;;;16.90;99.90;;;;;;5097784;28;20630;-82
2023/05/23 16:52:32;;;;;;;17.93;11.70;;;16.90;99.90;;;;;;5136469;27;20284;-83
2023/05/23 17:00:43;;;;;;;21.97;12.93;;;17.10;99.90;;;;;;5114197;27;20478;-83
